createdAt,value
2022-11-14T00:00:35.507Z,9.97
2022-11-14T00:04:09.745Z,10.07
2022-11-14T00:09:42.902Z,11.33
2022-11-14T00:13:47.490Z,12.30
2022-11-14T00:21:35.110Z,14.73
2022-11-14T00:24:02.846Z,12.90
2022-11-14T00:29:50.378Z,14.83
2022-11-14T00:32:18.245Z,15.80
2022-11-14T00:34:46.033Z,16.40
2022-11-14T00:39:05.423Z,15.20
2022-11-14T00:46:26.155Z,16.77
2022-11-14T00:50:00.890Z,19.13
2022-11-14T01:01:41.295Z,24.52
2022-11-14T01:42:42.535Z,25.03
2022-11-14T02:17:32.962Z,28.00
2022-11-14T03:09:48.639Z,33.03
2022-11-14T03:48:22.198Z,34.77
2022-11-14T03:58:52.004Z,31.00
2022-11-14T04:01:19.780Z,25.50
2022-11-14T04:03:49.440Z,27.90
2022-11-14T04:06:17.557Z,24.63
2022-11-14T04:08:48.380Z,29.03
2022-11-14T04:11:16.135Z,26.37
2022-11-14T04:13:44.262Z,30.10
2022-11-14T04:16:13.384Z,28.20
2022-11-14T04:18:44.827Z,25.97
2022-11-14T04:21:15.584Z,27.77
2022-11-14T04:23:43.458Z,24.83
2022-11-14T04:26:11.207Z,30.77
2022-11-14T04:28:38.930Z,27.17
2022-11-14T04:31:06.829Z,27.30
2022-11-14T04:33:39.008Z,25.73
2022-11-14T04:36:12.120Z,27.30
2022-11-14T04:38:39.924Z,24.80
2022-11-14T04:43:24.468Z,25.20
2022-11-14T04:45:54.383Z,24.93
2022-11-14T04:48:22.171Z,20.63
2022-11-14T04:50:51.537Z,21.33
2022-11-14T04:53:21.949Z,27.03
2022-11-14T04:55:53.308Z,23.73
2022-11-14T04:58:22.381Z,23.93
2022-11-14T05:00:50.175Z,25.30
2022-11-14T05:03:17.955Z,21.60
2022-11-14T05:05:48.278Z,24.47
2022-11-14T05:08:17.652Z,24.13
2022-11-14T05:10:46.780Z,24.10
2022-11-14T05:13:14.617Z,24.30
2022-11-14T05:15:43.788Z,26.03
2022-11-14T05:18:13.809Z,24.77
2022-11-14T05:20:43.528Z,26.67
2022-11-14T05:23:20.538Z,24.13
2022-11-14T05:25:53.531Z,25.43
2022-11-14T05:28:26.621Z,23.27
2022-11-14T05:31:01.852Z,23.87
2022-11-14T05:33:32.896Z,23.83
2022-11-14T05:36:05.590Z,19.70
2022-11-14T05:40:56.714Z,22.23
2022-11-14T05:43:24.877Z,25.13
2022-11-14T05:45:52.689Z,22.40
2022-11-14T05:48:20.433Z,22.70
2022-11-14T05:53:21.688Z,23.43
2022-11-14T05:55:49.418Z,24.73
2022-11-14T05:58:19.782Z,23.90
2022-11-14T06:00:53.491Z,21.20
2022-11-14T06:03:21.842Z,18.80
2022-11-14T06:05:49.612Z,23.20
2022-11-14T06:08:17.361Z,21.63
2022-11-14T06:13:00.986Z,21.53
2022-11-14T06:17:46.942Z,22.03
2022-11-14T06:20:15.705Z,21.77
2022-11-14T06:22:43.497Z,23.07
2022-11-14T06:25:11.488Z,22.93
2022-11-14T06:29:51.000Z,24.17
2022-11-14T06:32:18.760Z,25.47
2022-11-14T06:34:52.629Z,24.83
2022-11-14T06:37:20.493Z,24.40
2022-11-14T06:39:48.585Z,23.33
2022-11-14T06:44:50.144Z,23.93
2022-11-14T06:47:17.956Z,23.23
2022-11-14T06:49:45.705Z,23.10
2022-11-14T06:52:13.468Z,24.33
2022-11-14T06:56:53.558Z,21.20
2022-11-14T06:59:21.307Z,19.60
2022-11-14T07:01:58.251Z,27.73
2022-11-14T07:04:28.860Z,23.37
2022-11-14T07:06:56.659Z,20.77
2022-11-14T07:09:26.917Z,22.03
2022-11-14T07:11:59.938Z,24.00
2022-11-14T07:14:28.924Z,22.17
2022-11-14T07:16:56.847Z,24.37
2022-11-14T07:19:24.610Z,23.30
2022-11-14T07:22:08.730Z,23.97
2022-11-14T07:24:46.564Z,22.37
2022-11-14T07:27:17.891Z,20.57
2022-11-14T07:29:47.800Z,22.50
2022-11-14T07:32:15.554Z,21.03
2022-11-14T07:34:43.753Z,18.60
2022-11-14T07:37:11.644Z,21.63
2022-11-14T07:39:39.466Z,19.83
2022-11-14T07:44:23.910Z,23.13
2022-11-14T07:46:51.932Z,21.37
2022-11-14T07:49:19.661Z,21.83
2022-11-14T07:51:47.413Z,22.43
2022-11-14T07:54:17.602Z,26.00
2022-11-14T07:56:45.386Z,25.53
2022-11-14T08:01:25.755Z,22.23
2022-11-14T08:03:55.877Z,22.87
2022-11-14T08:06:30.280Z,33.37
2022-11-14T08:08:58.076Z,29.23
2022-11-14T08:11:42.870Z,26.13
2022-11-14T08:14:10.731Z,24.40
2022-11-14T08:16:39.922Z,26.90
2022-11-14T08:19:10.485Z,21.67
2022-11-14T08:21:40.215Z,24.03
2022-11-14T08:24:11.431Z,20.10
2022-11-14T08:26:39.809Z,25.50
2022-11-14T08:31:24.901Z,22.57
2022-11-14T08:33:53.088Z,25.10
2022-11-14T08:36:32.949Z,24.07
2022-11-14T08:39:02.211Z,23.47
2022-11-14T08:41:30.205Z,21.27
2022-11-14T08:44:00.847Z,23.57
2022-11-14T08:46:32.969Z,22.80
2022-11-14T08:49:00.710Z,25.33
2022-11-14T08:51:30.611Z,25.60
2022-11-14T08:53:58.745Z,24.13
2022-11-14T08:56:26.537Z,25.30
2022-11-14T08:58:57.394Z,22.67
2022-11-14T09:01:25.100Z,23.00
2022-11-14T09:03:59.429Z,24.60
2022-11-14T09:06:27.864Z,22.80
2022-11-14T09:08:58.925Z,20.70
2022-11-14T09:11:27.764Z,20.33
2022-11-14T09:13:55.578Z,20.20
2022-11-14T09:16:23.455Z,21.40
2022-11-14T09:18:51.291Z,19.37
2022-11-14T09:28:00.303Z,16.77
2022-11-14T09:30:30.526Z,17.73
2022-11-14T09:33:02.086Z,18.40
2022-11-14T09:35:32.550Z,15.80
2022-11-14T09:38:01.402Z,17.63
2022-11-14T09:40:31.567Z,16.80
2022-11-14T09:43:14.677Z,17.73
2022-11-14T09:45:51.887Z,16.20
2022-11-14T09:48:25.706Z,17.73
2022-11-14T09:51:06.596Z,15.30
2022-11-14T09:53:41.621Z,17.60
2022-11-14T09:56:16.160Z,16.73
2022-11-14T09:58:45.345Z,14.50
2022-11-14T10:03:42.615Z,17.63
2022-11-14T10:08:52.311Z,15.63
2022-11-14T10:16:52.134Z,18.73
2022-11-14T10:19:27.218Z,15.97
2022-11-14T10:22:07.239Z,17.23
2022-11-14T10:24:52.643Z,15.73
2022-11-14T10:27:24.612Z,16.10
2022-11-14T10:32:15.453Z,17.07
2022-11-14T10:34:51.556Z,15.37
2022-11-14T10:37:28.378Z,17.93
2022-11-14T10:40:02.571Z,21.70
2022-11-14T10:45:25.730Z,15.73
2022-11-14T10:47:58.551Z,16.30
2022-11-14T10:50:33.512Z,14.37
2022-11-14T10:53:05.856Z,17.17
2022-11-14T10:58:22.395Z,16.23
2022-11-14T11:00:51.645Z,16.27
2022-11-14T11:03:19.517Z,17.00
2022-11-14T11:05:51.311Z,15.30
2022-11-14T11:08:43.741Z,15.03
2022-11-14T11:11:31.937Z,16.13
2022-11-14T11:14:07.171Z,15.97
2022-11-14T11:16:36.307Z,15.90
2022-11-14T11:19:16.045Z,16.83
2022-11-14T11:42:00.846Z,16.43
2022-11-14T11:46:33.600Z,19.57
2022-11-14T11:53:08.002Z,15.10
2022-11-14T11:55:40.985Z,17.43
2022-11-14T12:06:15.268Z,19.57
2022-11-14T12:11:28.006Z,15.53
2022-11-14T12:14:21.471Z,15.83
2022-11-14T12:17:34.923Z,18.13
2022-11-14T12:20:44.283Z,16.47
2022-11-14T12:23:38.726Z,13.93
2022-11-14T12:34:00.373Z,25.63
2022-11-14T12:39:35.288Z,27.03
2022-11-14T12:47:22.099Z,22.83
2022-11-14T12:50:06.181Z,21.60
2022-11-14T12:52:57.391Z,22.90
2022-11-14T12:59:09.688Z,23.87
2022-11-14T13:01:56.131Z,20.83
2022-11-14T13:04:34.553Z,21.37
2022-11-14T13:07:20.436Z,21.17
2022-11-14T13:10:16.599Z,23.23
2022-11-14T13:13:15.821Z,22.33
2022-11-14T13:16:48.788Z,21.73
2022-11-14T13:19:39.798Z,22.63
2022-11-14T13:22:40.982Z,21.83
2022-11-14T13:25:23.761Z,21.00
2022-11-14T13:28:57.921Z,26.03
2022-11-14T13:31:26.796Z,20.80
2022-11-14T13:33:58.980Z,22.77
2022-11-14T13:39:21.313Z,22.10
2022-11-14T13:43:13.702Z,21.47
2022-11-14T13:45:59.365Z,22.80
2022-11-14T13:49:05.427Z,22.07
2022-11-14T13:51:43.242Z,23.20
2022-11-14T13:55:47.243Z,26.60
2022-11-14T13:58:30.204Z,24.33
2022-11-14T14:01:12.898Z,25.63
2022-11-14T14:03:55.331Z,24.50
2022-11-14T14:06:39.612Z,23.83
2022-11-14T14:11:00.682Z,24.37
2022-11-14T14:13:43.353Z,27.17
2022-11-14T14:16:17.529Z,29.20
2022-11-14T14:18:55.223Z,28.23
2022-11-14T14:21:36.935Z,30.97
2022-11-14T14:24:12.935Z,32.43
2022-11-14T14:27:47.196Z,27.60
2022-11-14T14:30:18.834Z,33.63
2022-11-14T14:33:03.665Z,33.07
2022-11-14T14:35:38.838Z,31.90
2022-11-14T14:38:13.208Z,35.13
2022-11-14T14:40:42.983Z,32.90
2022-11-14T14:44:28.502Z,31.43
2022-11-14T14:49:40.763Z,33.00
2022-11-14T15:06:22.226Z,33.23
2022-11-14T15:08:50.509Z,29.00
2022-11-14T15:18:01.508Z,31.73
2022-11-14T15:21:27.175Z,30.23
2022-11-14T15:24:03.830Z,31.13
2022-11-14T15:26:32.455Z,27.90
2022-11-14T15:29:07.975Z,28.17
2022-11-14T15:31:37.178Z,30.30
2022-11-14T15:34:07.942Z,26.33
2022-11-14T15:36:37.031Z,29.00
2022-11-14T15:39:24.684Z,32.70
2022-11-14T15:42:13.365Z,28.07
2022-11-14T15:46:57.543Z,29.10
2022-11-14T15:49:28.197Z,25.83
2022-11-14T15:52:01.801Z,31.80
2022-11-14T15:58:29.183Z,30.03
2022-11-14T16:00:59.690Z,30.73
2022-11-14T16:06:05.939Z,33.33
2022-11-14T16:08:33.694Z,27.77
2022-11-14T16:11:01.433Z,30.60
2022-11-14T16:13:29.449Z,29.60
2022-11-14T16:15:57.515Z,30.87
2022-11-14T16:18:25.271Z,29.67
2022-11-14T16:20:53.108Z,32.47
2022-11-14T16:23:22.237Z,33.93
2022-11-14T16:27:45.489Z,30.90
2022-11-14T16:30:54.140Z,29.73
2022-11-14T16:33:22.006Z,31.53
2022-11-14T16:35:49.795Z,29.93
2022-11-14T16:38:19.194Z,32.43
2022-11-14T16:40:47.099Z,27.77
2022-11-14T16:43:15.873Z,28.43
2022-11-14T16:46:33.533Z,28.17
2022-11-14T16:49:01.366Z,26.67
2022-11-14T16:54:19.343Z,32.30
2022-11-14T16:56:47.752Z,30.00
2022-11-14T16:59:15.485Z,29.20
2022-11-14T17:01:45.920Z,44.93
2022-11-14T17:04:17.774Z,49.43
2022-11-14T17:06:48.059Z,32.17
2022-11-14T17:09:15.861Z,29.33
2022-11-14T17:11:44.625Z,32.07
2022-11-14T17:15:38.895Z,31.63
2022-11-14T17:18:07.630Z,28.13
2022-11-14T17:20:37.499Z,28.97
2022-11-14T17:23:07.219Z,28.10
2022-11-14T17:25:35.020Z,28.13
2022-11-14T17:28:02.737Z,32.90
2022-11-14T17:30:30.474Z,30.43
2022-11-14T17:35:22.031Z,27.17
2022-11-14T17:40:28.277Z,26.63
2022-11-14T17:42:56.021Z,28.07
2022-11-14T17:45:26.423Z,27.07
2022-11-14T17:55:46.743Z,30.53
2022-11-14T18:03:50.715Z,29.33
2022-11-14T18:13:49.480Z,28.33
2022-11-14T18:16:20.404Z,28.83
2022-11-14T18:18:48.636Z,27.57
2022-11-14T18:21:26.913Z,27.53
2022-11-14T18:24:15.011Z,30.67
2022-11-14T18:26:44.789Z,28.17
2022-11-14T18:29:13.711Z,27.20
2022-11-14T18:31:41.478Z,27.77
2022-11-14T18:42:25.597Z,26.93
2022-11-14T18:46:41.169Z,24.23
2022-11-14T18:51:29.168Z,20.13
2022-11-14T18:59:17.649Z,18.73
2022-11-14T19:10:14.650Z,15.67
2022-11-14T19:24:04.343Z,16.00
2022-11-14T19:33:28.712Z,17.93
2022-11-14T19:55:09.207Z,14.53
2022-11-14T19:57:36.979Z,14.43
2022-11-14T20:00:05.716Z,14.97
2022-11-14T20:02:33.455Z,14.63
2022-11-14T20:07:39.710Z,18.13
2022-11-14T20:11:20.135Z,16.83
2022-11-14T20:27:11.344Z,16.70
2022-11-14T20:55:38.178Z,16.97
2022-11-14T20:58:06.399Z,14.43
2022-11-14T21:00:34.160Z,14.10
2022-11-14T21:03:01.990Z,14.37
2022-11-14T21:05:29.744Z,12.93
2022-11-14T21:08:00.085Z,14.33
2022-11-14T21:10:56.986Z,14.33
2022-11-14T21:13:43.754Z,16.90
2022-11-14T21:16:13.090Z,14.93
2022-11-14T21:23:38.687Z,19.80
2022-11-14T21:26:08.369Z,18.60
2022-11-14T21:31:17.043Z,17.77
2022-11-14T21:33:45.165Z,17.20
2022-11-14T21:36:43.370Z,16.47
2022-11-14T21:50:30.541Z,19.00
2022-11-14T22:01:45.134Z,18.73
2022-11-14T22:23:46.422Z,18.83
2022-11-14T23:16:51.546Z,21.97
2022-11-14T23:19:21.966Z,20.10
2022-11-14T23:32:03.740Z,21.50
2022-11-14T23:49:51.769Z,23.07
2022-11-14T23:52:19.561Z,25.47
2022-11-14T23:54:47.318Z,28.90
